sensor_id;sensor_type;location;lat;lon;timestamp;P1;P2;P0
76421;PMS5003;65254;52.354;13.614;2023-11-19T00:00:00;8;7;
76421;PMS5003;65254;52.354;13.614;2023-11-19T00:04:00;7;7;
76421;PMS5003;65254;52.354;13.614;2023-11-19T00:08:00;7;7;
76421;PMS5003;65254;52.354;13.614;2023-11-19T00:12:00;8;7;
76421;PMS5003;65254;52.354;13.614;2023-11-19T00:16:00;7;7;
76421;PMS5003;65254;52.354;13.614;2023-11-19T00:20:00;7;7;
76421;PMS5003;65254;52.354;13.614;2023-11-19T00:24:00;7;7;
76421;PMS5003;65254;52.354;13.614;2023-11-19T00:28:00;6;6;
76421;PMS5003;65254;52.354;13.614;2023-11-19T00:32:00;7;7;
76421;PMS5003;65254;52.354;13.614;2023-11-19T00:36:00;6;6;
76421;PMS5003;65254;52.354;13.614;2023-11-19T00:40:00;7;7;
76421;PMS5003;65254;52.354;13.614;2023-11-19T00:44:00;6;6;
76421;PMS5003;65254;52.354;13.614;2023-11-19T00:48:00;7;7;
76421;PMS5003;65254;52.354;13.614;2023-11-19T00:52:00;7;7;
76421;PMS5003;65254;52.354;13.614;2023-11-19T00:56:00;6;6;
76421;PMS5003;65254;52.354;13.614;2023-11-19T01:00:01;7;7;
76421;PMS5003;65254;52.354;13.614;2023-11-19T01:04:00;6;6;
76421;PMS5003;65254;52.354;13.614;2023-11-19T01:08:00;6;6;
76421;PMS5003;65254;52.354;13.614;2023-11-19T01:12:00;7;7;
76421;PMS5003;65254;52.354;13.614;2023-11-19T01:16:00;6;6;
76421;PMS5003;65254;52.354;13.614;2023-11-19T01:20:01;6;6;
76421;PMS5003;65254;52.354;13.614;2023-11-19T01:24:00;6;6;
76421;PMS5003;65254;52.354;13.614;2023-11-19T01:28:00;7;7;
76421;PMS5003;65254;52.354;13.614;2023-11-19T01:32:00;7;7;
76421;PMS5003;65254;52.354;13.614;2023-11-19T01:36:00;6;6;
76421;PMS5003;65254;52.354;13.614;2023-11-19T01:40:00;7;7;
76421;PMS5003;65254;52.354;13.614;2023-11-19T01:44:00;7;7;
76421;PMS5003;65254;52.354;13.614;2023-11-19T01:48:02;6;6;
76421;PMS5003;65254;52.354;13.614;2023-11-19T01:52:01;6;6;
76421;PMS5003;65254;52.354;13.614;2023-11-19T01:56:01;7;7;
76421;PMS5003;65254;52.354;13.614;2023-11-19T02:00:00;6;6;
76421;PMS5003;65254;52.354;13.614;2023-11-19T02:04:01;6;6;
76421;PMS5003;65254;52.354;13.614;2023-11-19T02:08:00;6;6;
76421;PMS5003;65254;52.354;13.614;2023-11-19T02:12:00;6;6;
76421;PMS5003;65254;52.354;13.614;2023-11-19T02:16:00;6;6;
76421;PMS5003;65254;52.354;13.614;2023-11-19T02:20:00;6;6;
76421;PMS5003;65254;52.354;13.614;2023-11-19T02:24:06;7;7;
76421;PMS5003;65254;52.354;13.614;2023-11-19T02:28:01;6;6;
76421;PMS5003;65254;52.354;13.614;2023-11-19T02:32:00;6;6;
76421;PMS5003;65254;52.354;13.614;2023-11-19T02:36:00;6;6;
76421;PMS5003;65254;52.354;13.614;2023-11-19T02:40:00;6;6;
76421;PMS5003;65254;52.354;13.614;2023-11-19T02:44:00;6;6;
76421;PMS5003;65254;52.354;13.614;2023-11-19T02:48:00;5;5;
76421;PMS5003;65254;52.354;13.614;2023-11-19T02:52:00;5;5;
76421;PMS5003;65254;52.354;13.614;2023-11-19T02:56:00;5;5;
76421;PMS5003;65254;52.354;13.614;2023-11-19T03:00:00;5;5;
76421;PMS5003;65254;52.354;13.614;2023-11-19T03:04:01;6;6;
76421;PMS5003;65254;52.354;13.614;2023-11-19T03:08:00;5;5;
76421;PMS5003;65254;52.354;13.614;2023-11-19T03:12:00;5;5;
76421;PMS5003;65254;52.354;13.614;2023-11-19T03:16:00;5;5;
76421;PMS5003;65254;52.354;13.614;2023-11-19T03:20:00;5;5;
76421;PMS5003;65254;52.354;13.614;2023-11-19T03:24:00;4;4;
76421;PMS5003;65254;52.354;13.614;2023-11-19T03:28:01;5;5;
76421;PMS5003;65254;52.354;13.614;2023-11-19T03:32:00;5;5;
76421;PMS5003;65254;52.354;13.614;2023-11-19T03:36:00;5;5;
76421;PMS5003;65254;52.354;13.614;2023-11-19T03:40:04;5;5;
76421;PMS5003;65254;52.354;13.614;2023-11-19T03:44:00;5;5;
76421;PMS5003;65254;52.354;13.614;2023-11-19T03:48:00;5;5;
76421;PMS5003;65254;52.354;13.614;2023-11-19T03:52:00;5;5;
76421;PMS5003;65254;52.354;13.614;2023-11-19T03:56:00;5;5;
76421;PMS5003;65254;52.354;13.614;2023-11-19T04:00:00;5;5;
76421;PMS5003;65254;52.354;13.614;2023-11-19T04:04:00;5;5;
76421;PMS5003;65254;52.354;13.614;2023-11-19T04:08:00;5;5;
76421;PMS5003;65254;52.354;13.614;2023-11-19T04:12:00;5;5;
76421;PMS5003;65254;52.354;13.614;2023-11-19T04:16:00;6;6;
76421;PMS5003;65254;52.354;13.614;2023-11-19T04:20:00;4;4;
76421;PMS5003;65254;52.354;13.614;2023-11-19T04:24:00;5;5;
76421;PMS5003;65254;52.354;13.614;2023-11-19T04:28:00;5;5;
76421;PMS5003;65254;52.354;13.614;2023-11-19T04:32:00;5;5;
76421;PMS5003;65254;52.354;13.614;2023-11-19T04:36:00;5;5;
76421;PMS5003;65254;52.354;13.614;2023-11-19T04:40:00;5;5;
76421;PMS5003;65254;52.354;13.614;2023-11-19T04:44:00;5;5;
76421;PMS5003;65254;52.354;13.614;2023-11-19T04:48:00;5;5;
76421;PMS5003;65254;52.354;13.614;2023-11-19T04:52:00;5;5;
76421;PMS5003;65254;52.354;13.614;2023-11-19T04:56:01;5;5;
76421;PMS5003;65254;52.354;13.614;2023-11-19T05:00:00;6;6;
76421;PMS5003;65254;52.354;13.614;2023-11-19T05:04:01;5;5;
76421;PMS5003;65254;52.354;13.614;2023-11-19T05:08:00;6;6;
76421;PMS5003;65254;52.354;13.614;2023-11-19T05:12:00;6;6;
76421;PMS5003;65254;52.354;13.614;2023-11-19T05:16:00;6;6;
76421;PMS5003;65254;52.354;13.614;2023-11-19T05:20:00;5;5;
76421;PMS5003;65254;52.354;13.614;2023-11-19T05:24:00;5;5;
76421;PMS5003;65254;52.354;13.614;2023-11-19T05:28:00;6;6;
76421;PMS5003;65254;52.354;13.614;2023-11-19T05:32:00;6;6;
76421;PMS5003;65254;52.354;13.614;2023-11-19T05:36:00;6;6;
76421;PMS5003;65254;52.354;13.614;2023-11-19T05:40:01;6;6;
76421;PMS5003;65254;52.354;13.614;2023-11-19T05:44:00;5;5;
76421;PMS5003;65254;52.354;13.614;2023-11-19T05:48:01;5;5;
76421;PMS5003;65254;52.354;13.614;2023-11-19T05:52:00;5;5;
76421;PMS5003;65254;52.354;13.614;2023-11-19T05:56:00;5;5;
76421;PMS5003;65254;52.354;13.614;2023-11-19T06:00:00;5;5;
76421;PMS5003;65254;52.354;13.614;2023-11-19T06:04:00;5;5;
76421;PMS5003;65254;52.354;13.614;2023-11-19T06:08:00;5;5;
76421;PMS5003;65254;52.354;13.614;2023-11-19T06:12:00;4;4;
76421;PMS5003;65254;52.354;13.614;2023-11-19T06:16:00;4;4;
76421;PMS5003;65254;52.354;13.614;2023-11-19T06:20:00;4;4;
76421;PMS5003;65254;52.354;13.614;2023-11-19T06:24:00;5;5;
76421;PMS5003;65254;52.354;13.614;2023-11-19T06:28:01;4;4;
76421;PMS5003;65254;52.354;13.614;2023-11-19T06:32:11;5;5;
76421;PMS5003;65254;52.354;13.614;2023-11-19T06:36:00;4;4;
76421;PMS5003;65254;52.354;13.614;2023-11-19T06:40:00;4;4;
76421;PMS5003;65254;52.354;13.614;2023-11-19T06:44:00;4;4;
76421;PMS5003;65254;52.354;13.614;2023-11-19T06:48:01;4;4;
76421;PMS5003;65254;52.354;13.614;2023-11-19T06:52:00;4;4;
76421;PMS5003;65254;52.354;13.614;2023-11-19T06:56:00;4;4;
76421;PMS5003;65254;52.354;13.614;2023-11-19T07:00:00;5;5;
76421;PMS5003;65254;52.354;13.614;2023-11-19T07:04:00;5;5;
76421;PMS5003;65254;52.354;13.614;2023-11-19T07:08:00;5;5;
76421;PMS5003;65254;52.354;13.614;2023-11-19T07:12:00;4;4;
76421;PMS5003;65254;52.354;13.614;2023-11-19T07:16:00;4;4;
76421;PMS5003;65254;52.354;13.614;2023-11-19T07:20:00;5;5;
76421;PMS5003;65254;52.354;13.614;2023-11-19T07:24:02;5;5;
76421;PMS5003;65254;52.354;13.614;2023-11-19T07:28:00;5;5;
76421;PMS5003;65254;52.354;13.614;2023-11-19T07:32:00;4;4;
76421;PMS5003;65254;52.354;13.614;2023-11-19T07:36:00;3;3;
76421;PMS5003;65254;52.354;13.614;2023-11-19T07:40:00;4;4;
76421;PMS5003;65254;52.354;13.614;2023-11-19T07:44:00;4;4;
76421;PMS5003;65254;52.354;13.614;2023-11-19T07:48:00;4;4;
76421;PMS5003;65254;52.354;13.614;2023-11-19T07:52:00;5;5;
76421;PMS5003;65254;52.354;13.614;2023-11-19T07:56:00;3;3;
76421;PMS5003;65254;52.354;13.614;2023-11-19T08:00:00;4;4;
76421;PMS5003;65254;52.354;13.614;2023-11-19T08:04:01;5;5;
76421;PMS5003;65254;52.354;13.614;2023-11-19T08:08:00;4;4;
76421;PMS5003;65254;52.354;13.614;2023-11-19T08:12:00;4;4;
76421;PMS5003;65254;52.354;13.614;2023-11-19T08:16:00;4;4;
76421;PMS5003;65254;52.354;13.614;2023-11-19T08:20:00;5;5;
76421;PMS5003;65254;52.354;13.614;2023-11-19T08:24:00;6;6;
76421;PMS5003;65254;52.354;13.614;2023-11-19T08:28:00;4;4;
76421;PMS5003;65254;52.354;13.614;2023-11-19T08:32:03;3;3;
76421;PMS5003;65254;52.354;13.614;2023-11-19T08:36:00;3;3;
76421;PMS5003;65254;52.354;13.614;2023-11-19T08:40:00;3;3;
76421;PMS5003;65254;52.354;13.614;2023-11-19T08:44:00;4;4;
76421;PMS5003;65254;52.354;13.614;2023-11-19T08:48:01;4;4;
76421;PMS5003;65254;52.354;13.614;2023-11-19T08:52:00;4;4;
76421;PMS5003;65254;52.354;13.614;2023-11-19T08:56:00;4;4;
76421;PMS5003;65254;52.354;13.614;2023-11-19T09:00:01;3;3;
76421;PMS5003;65254;52.354;13.614;2023-11-19T09:04:00;2;2;
76421;PMS5003;65254;52.354;13.614;2023-11-19T09:08:00;3;3;
76421;PMS5003;65254;52.354;13.614;2023-11-19T09:12:00;3;3;
76421;PMS5003;65254;52.354;13.614;2023-11-19T09:16:00;2;2;
76421;PMS5003;65254;52.354;13.614;2023-11-19T09:20:00;3;3;
76421;PMS5003;65254;52.354;13.614;2023-11-19T09:24:00;2;2;
76421;PMS5003;65254;52.354;13.614;2023-11-19T09:28:00;3;3;
76421;PMS5003;65254;52.354;13.614;2023-11-19T09:32:00;3;3;
76421;PMS5003;65254;52.354;13.614;2023-11-19T09:36:00;3;3;
76421;PMS5003;65254;52.354;13.614;2023-11-19T09:40:00;3;3;
76421;PMS5003;65254;52.354;13.614;2023-11-19T09:44:00;2;2;
76421;PMS5003;65254;52.354;13.614;2023-11-19T09:48:01;2;2;
76421;PMS5003;65254;52.354;13.614;2023-11-19T09:52:00;1;1;
76421;PMS5003;65254;52.354;13.614;2023-11-19T09:56:01;1;1;
76421;PMS5003;65254;52.354;13.614;2023-11-19T10:00:01;1;1;
76421;PMS5003;65254;52.354;13.614;2023-11-19T10:04:01;2;2;
76421;PMS5003;65254;52.354;13.614;2023-11-19T10:08:01;1;1;
76421;PMS5003;65254;52.354;13.614;2023-11-19T10:12:00;1;1;
76421;PMS5003;65254;52.354;13.614;2023-11-19T10:16:04;1;1;
76421;PMS5003;65254;52.354;13.614;2023-11-19T10:20:00;1;1;
76421;PMS5003;65254;52.354;13.614;2023-11-19T10:24:00;1;1;
76421;PMS5003;65254;52.354;13.614;2023-11-19T10:28:00;1;1;
76421;PMS5003;65254;52.354;13.614;2023-11-19T10:32:12;1;1;
76421;PMS5003;65254;52.354;13.614;2023-11-19T10:36:03;1;1;
76421;PMS5003;65254;52.354;13.614;2023-11-19T10:40:00;0;0;
76421;PMS5003;65254;52.354;13.614;2023-11-19T10:44:00;1;1;
76421;PMS5003;65254;52.354;13.614;2023-11-19T10:48:02;1;1;
76421;PMS5003;65254;52.354;13.614;2023-11-19T10:52:01;1;1;
76421;PMS5003;65254;52.354;13.614;2023-11-19T10:56:02;1;1;
76421;PMS5003;65254;52.354;13.614;2023-11-19T11:00:02;1;1;
76421;PMS5003;65254;52.354;13.614;2023-11-19T11:04:01;0;0;
76421;PMS5003;65254;52.354;13.614;2023-11-19T11:08:01;1;1;
76421;PMS5003;65254;52.354;13.614;2023-11-19T11:12:00;1;1;
76421;PMS5003;65254;52.354;13.614;2023-11-19T11:16:01;1;1;
76421;PMS5003;65254;52.354;13.614;2023-11-19T11:20:01;1;1;
76421;PMS5003;65254;52.354;13.614;2023-11-19T11:24:18;1;1;
76421;PMS5003;65254;52.354;13.614;2023-11-19T11:28:08;1;1;
76421;PMS5003;65254;52.354;13.614;2023-11-19T11:32:08;1;1;
76421;PMS5003;65254;52.354;13.614;2023-11-19T11:36:10;1;1;
76421;PMS5003;65254;52.354;13.614;2023-11-19T11:40:01;1;1;
76421;PMS5003;65254;52.354;13.614;2023-11-19T11:44:01;1;1;
76421;PMS5003;65254;52.354;13.614;2023-11-19T11:48:09;1;1;
76421;PMS5003;65254;52.354;13.614;2023-11-19T11:52:01;2;2;
76421;PMS5003;65254;52.354;13.614;2023-11-19T11:56:01;2;2;
76421;PMS5003;65254;52.354;13.614;2023-11-19T12:00:02;2;2;
76421;PMS5003;65254;52.354;13.614;2023-11-19T12:04:01;2;2;
76421;PMS5003;65254;52.354;13.614;2023-11-19T12:08:01;1;1;
76421;PMS5003;65254;52.354;13.614;2023-11-19T12:12:13;2;2;
76421;PMS5003;65254;52.354;13.614;2023-11-19T12:16:08;2;2;
76421;PMS5003;65254;52.354;13.614;2023-11-19T12:20:01;2;2;
76421;PMS5003;65254;52.354;13.614;2023-11-19T12:24:01;1;1;
76421;PMS5003;65254;52.354;13.614;2023-11-19T12:28:00;2;2;
76421;PMS5003;65254;52.354;13.614;2023-11-19T12:32:11;2;2;
76421;PMS5003;65254;52.354;13.614;2023-11-19T12:36:00;2;2;
76421;PMS5003;65254;52.354;13.614;2023-11-19T12:40:00;2;2;
76421;PMS5003;65254;52.354;13.614;2023-11-19T12:44:08;2;2;
76421;PMS5003;65254;52.354;13.614;2023-11-19T12:48:06;2;2;
76421;PMS5003;65254;52.354;13.614;2023-11-19T12:52:01;2;2;
76421;PMS5003;65254;52.354;13.614;2023-11-19T12:56:07;2;2;
76421;PMS5003;65254;52.354;13.614;2023-11-19T13:00:00;2;2;
76421;PMS5003;65254;52.354;13.614;2023-11-19T13:04:00;2;2;
76421;PMS5003;65254;52.354;13.614;2023-11-19T13:08:01;2;2;
76421;PMS5003;65254;52.354;13.614;2023-11-19T13:12:12;3;3;
76421;PMS5003;65254;52.354;13.614;2023-11-19T13:16:03;2;2;
76421;PMS5003;65254;52.354;13.614;2023-11-19T13:20:00;2;2;
76421;PMS5003;65254;52.354;13.614;2023-11-19T13:24:00;2;2;
76421;PMS5003;65254;52.354;13.614;2023-11-19T13:28:00;3;3;
76421;PMS5003;65254;52.354;13.614;2023-11-19T13:32:00;3;3;
76421;PMS5003;65254;52.354;13.614;2023-11-19T13:36:00;3;3;
76421;PMS5003;65254;52.354;13.614;2023-11-19T13:40:01;2;2;
76421;PMS5003;65254;52.354;13.614;2023-11-19T13:44:00;3;3;
76421;PMS5003;65254;52.354;13.614;2023-11-19T13:48:00;3;3;
76421;PMS5003;65254;52.354;13.614;2023-11-19T13:52:00;3;3;
76421;PMS5003;65254;52.354;13.614;2023-11-19T13:56:00;3;3;
76421;PMS5003;65254;52.354;13.614;2023-11-19T14:00:00;3;3;
76421;PMS5003;65254;52.354;13.614;2023-11-19T14:04:00;3;3;
76421;PMS5003;65254;52.354;13.614;2023-11-19T14:08:00;3;3;
76421;PMS5003;65254;52.354;13.614;2023-11-19T14:12:00;3;3;
76421;PMS5003;65254;52.354;13.614;2023-11-19T14:16:00;3;3;
76421;PMS5003;65254;52.354;13.614;2023-11-19T14:20:00;3;3;
76421;PMS5003;65254;52.354;13.614;2023-11-19T14:24:00;3;3;
76421;PMS5003;65254;52.354;13.614;2023-11-19T14:28:00;3;3;
76421;PMS5003;65254;52.354;13.614;2023-11-19T14:32:01;3;3;
76421;PMS5003;65254;52.354;13.614;2023-11-19T14:36:00;3;3;
76421;PMS5003;65254;52.354;13.614;2023-11-19T14:40:01;4;4;
76421;PMS5003;65254;52.354;13.614;2023-11-19T14:44:00;3;3;
76421;PMS5003;65254;52.354;13.614;2023-11-19T14:48:00;3;3;
76421;PMS5003;65254;52.354;13.614;2023-11-19T14:52:11;3;3;
76421;PMS5003;65254;52.354;13.614;2023-11-19T14:56:01;3;3;
76421;PMS5003;65254;52.354;13.614;2023-11-19T15:00:00;3;3;
76421;PMS5003;65254;52.354;13.614;2023-11-19T15:04:05;3;3;
76421;PMS5003;65254;52.354;13.614;2023-11-19T15:08:00;3;3;
76421;PMS5003;65254;52.354;13.614;2023-11-19T15:12:00;3;3;
76421;PMS5003;65254;52.354;13.614;2023-11-19T15:16:00;3;3;
76421;PMS5003;65254;52.354;13.614;2023-11-19T15:20:02;3;3;
76421;PMS5003;65254;52.354;13.614;2023-11-19T15:24:01;3;3;
76421;PMS5003;65254;52.354;13.614;2023-11-19T15:28:00;3;3;
76421;PMS5003;65254;52.354;13.614;2023-11-19T15:32:00;3;3;
76421;PMS5003;65254;52.354;13.614;2023-11-19T15:36:00;3;3;
76421;PMS5003;65254;52.354;13.614;2023-11-19T15:40:00;3;3;
76421;PMS5003;65254;52.354;13.614;2023-11-19T15:44:00;3;3;
76421;PMS5003;65254;52.354;13.614;2023-11-19T15:48:00;3;3;
76421;PMS5003;65254;52.354;13.614;2023-11-19T15:52:00;3;3;
76421;PMS5003;65254;52.354;13.614;2023-11-19T15:56:00;3;3;
76421;PMS5003;65254;52.354;13.614;2023-11-19T16:00:00;3;3;
76421;PMS5003;65254;52.354;13.614;2023-11-19T16:04:01;3;3;
76421;PMS5003;65254;52.354;13.614;2023-11-19T16:08:00;3;3;
76421;PMS5003;65254;52.354;13.614;2023-11-19T16:12:00;4;4;
76421;PMS5003;65254;52.354;13.614;2023-11-19T16:16:00;3;3;
76421;PMS5003;65254;52.354;13.614;2023-11-19T16:20:01;3;3;
76421;PMS5003;65254;52.354;13.614;2023-11-19T16:24:00;3;3;
76421;PMS5003;65254;52.354;13.614;2023-11-19T16:28:00;5;5;
76421;PMS5003;65254;52.354;13.614;2023-11-19T16:32:00;5;5;
76421;PMS5003;65254;52.354;13.614;2023-11-19T16:36:00;4;4;
76421;PMS5003;65254;52.354;13.614;2023-11-19T16:40:00;4;4;
76421;PMS5003;65254;52.354;13.614;2023-11-19T16:44:00;4;4;
76421;PMS5003;65254;52.354;13.614;2023-11-19T16:48:00;5;5;
76421;PMS5003;65254;52.354;13.614;2023-11-19T16:52:02;5;5;
76421;PMS5003;65254;52.354;13.614;2023-11-19T16:56:00;5;5;
76421;PMS5003;65254;52.354;13.614;2023-11-19T17:00:00;5;5;
76421;PMS5003;65254;52.354;13.614;2023-11-19T17:04:01;5;5;
76421;PMS5003;65254;52.354;13.614;2023-11-19T17:08:00;6;5;
76421;PMS5003;65254;52.354;13.614;2023-11-19T17:12:00;5;5;
76421;PMS5003;65254;52.354;13.614;2023-11-19T17:16:01;5;5;
76421;PMS5003;65254;52.354;13.614;2023-11-19T17:20:02;5;5;
76421;PMS5003;65254;52.354;13.614;2023-11-19T17:24:00;4;4;
76421;PMS5003;65254;52.354;13.614;2023-11-19T17:28:00;4;4;
76421;PMS5003;65254;52.354;13.614;2023-11-19T17:32:00;4;4;
76421;PMS5003;65254;52.354;13.614;2023-11-19T17:36:00;4;4;
76421;PMS5003;65254;52.354;13.614;2023-11-19T17:40:00;4;4;
76421;PMS5003;65254;52.354;13.614;2023-11-19T17:44:00;4;4;
76421;PMS5003;65254;52.354;13.614;2023-11-19T17:48:00;5;5;
76421;PMS5003;65254;52.354;13.614;2023-11-19T17:52:00;4;4;
76421;PMS5003;65254;52.354;13.614;2023-11-19T17:56:00;4;4;
76421;PMS5003;65254;52.354;13.614;2023-11-19T18:00:00;5;5;
76421;PMS5003;65254;52.354;13.614;2023-11-19T18:04:00;5;5;
76421;PMS5003;65254;52.354;13.614;2023-11-19T18:08:00;4;4;
76421;PMS5003;65254;52.354;13.614;2023-11-19T18:12:11;4;4;
76421;PMS5003;65254;52.354;13.614;2023-11-19T18:16:00;4;4;
76421;PMS5003;65254;52.354;13.614;2023-11-19T18:20:00;6;6;
76421;PMS5003;65254;52.354;13.614;2023-11-19T18:24:00;5;5;
76421;PMS5003;65254;52.354;13.614;2023-11-19T18:28:00;4;4;
76421;PMS5003;65254;52.354;13.614;2023-11-19T18:32:00;5;5;
76421;PMS5003;65254;52.354;13.614;2023-11-19T18:36:02;5;5;
76421;PMS5003;65254;52.354;13.614;2023-11-19T18:40:00;5;5;
76421;PMS5003;65254;52.354;13.614;2023-11-19T18:44:00;4;4;
76421;PMS5003;65254;52.354;13.614;2023-11-19T18:48:01;3;3;
76421;PMS5003;65254;52.354;13.614;2023-11-19T18:52:00;4;4;
76421;PMS5003;65254;52.354;13.614;2023-11-19T18:56:00;3;3;
76421;PMS5003;65254;52.354;13.614;2023-11-19T19:00:00;3;3;
76421;PMS5003;65254;52.354;13.614;2023-11-19T19:04:01;4;4;
76421;PMS5003;65254;52.354;13.614;2023-11-19T19:08:00;4;4;
76421;PMS5003;65254;52.354;13.614;2023-11-19T19:12:01;5;5;
76421;PMS5003;65254;52.354;13.614;2023-11-19T19:16:05;5;5;
76421;PMS5003;65254;52.354;13.614;2023-11-19T19:20:03;5;5;
76421;PMS5003;65254;52.354;13.614;2023-11-19T19:24:00;4;4;
76421;PMS5003;65254;52.354;13.614;2023-11-19T19:28:03;4;4;
76421;PMS5003;65254;52.354;13.614;2023-11-19T19:32:00;4;4;
76421;PMS5003;65254;52.354;13.614;2023-11-19T19:36:00;4;4;
76421;PMS5003;65254;52.354;13.614;2023-11-19T19:40:11;3;3;
76421;PMS5003;65254;52.354;13.614;2023-11-19T19:44:00;2;2;
76421;PMS5003;65254;52.354;13.614;2023-11-19T19:48:00;3;3;
76421;PMS5003;65254;52.354;13.614;2023-11-19T19:52:00;2;2;
76421;PMS5003;65254;52.354;13.614;2023-11-19T19:56:00;3;3;
76421;PMS5003;65254;52.354;13.614;2023-11-19T20:00:01;2;2;
76421;PMS5003;65254;52.354;13.614;2023-11-19T20:04:00;3;3;
76421;PMS5003;65254;52.354;13.614;2023-11-19T20:08:00;3;3;
76421;PMS5003;65254;52.354;13.614;2023-11-19T20:12:00;3;3;
76421;PMS5003;65254;52.354;13.614;2023-11-19T20:16:00;2;2;
76421;PMS5003;65254;52.354;13.614;2023-11-19T20:20:01;2;2;
76421;PMS5003;65254;52.354;13.614;2023-11-19T20:24:00;2;2;
76421;PMS5003;65254;52.354;13.614;2023-11-19T20:28:01;2;2;
76421;PMS5003;65254;52.354;13.614;2023-11-19T20:32:00;2;2;
76421;PMS5003;65254;52.354;13.614;2023-11-19T20:36:00;2;2;
76421;PMS5003;65254;52.354;13.614;2023-11-19T20:40:00;2;2;
76421;PMS5003;65254;52.354;13.614;2023-11-19T20:44:00;2;2;
76421;PMS5003;65254;52.354;13.614;2023-11-19T20:48:00;2;2;
76421;PMS5003;65254;52.354;13.614;2023-11-19T20:52:00;2;2;
76421;PMS5003;65254;52.354;13.614;2023-11-19T20:56:00;2;2;
76421;PMS5003;65254;52.354;13.614;2023-11-19T21:00:00;2;2;
76421;PMS5003;65254;52.354;13.614;2023-11-19T21:04:00;2;2;
76421;PMS5003;65254;52.354;13.614;2023-11-19T21:08:00;2;2;
76421;PMS5003;65254;52.354;13.614;2023-11-19T21:12:05;2;2;
76421;PMS5003;65254;52.354;13.614;2023-11-19T21:16:00;2;2;
76421;PMS5003;65254;52.354;13.614;2023-11-19T21:20:00;2;2;
76421;PMS5003;65254;52.354;13.614;2023-11-19T21:24:00;2;2;
76421;PMS5003;65254;52.354;13.614;2023-11-19T21:28:00;2;2;
76421;PMS5003;65254;52.354;13.614;2023-11-19T21:32:00;2;2;
76421;PMS5003;65254;52.354;13.614;2023-11-19T21:36:00;2;2;
76421;PMS5003;65254;52.354;13.614;2023-11-19T21:40:00;2;2;
76421;PMS5003;65254;52.354;13.614;2023-11-19T21:44:02;2;2;
76421;PMS5003;65254;52.354;13.614;2023-11-19T21:48:01;2;2;
76421;PMS5003;65254;52.354;13.614;2023-11-19T21:52:00;2;2;
76421;PMS5003;65254;52.354;13.614;2023-11-19T21:56:04;2;2;
76421;PMS5003;65254;52.354;13.614;2023-11-19T22:00:00;2;2;
76421;PMS5003;65254;52.354;13.614;2023-11-19T22:04:00;2;2;
76421;PMS5003;65254;52.354;13.614;2023-11-19T22:08:03;2;2;
76421;PMS5003;65254;52.354;13.614;2023-11-19T22:12:00;2;2;
76421;PMS5003;65254;52.354;13.614;2023-11-19T22:16:00;2;2;
76421;PMS5003;65254;52.354;13.614;2023-11-19T22:20:00;2;2;
76421;PMS5003;65254;52.354;13.614;2023-11-19T22:24:00;2;2;
76421;PMS5003;65254;52.354;13.614;2023-11-19T22:28:00;2;2;
76421;PMS5003;65254;52.354;13.614;2023-11-19T22:32:00;2;2;
76421;PMS5003;65254;52.354;13.614;2023-11-19T22:36:00;2;2;
76421;PMS5003;65254;52.354;13.614;2023-11-19T22:40:00;2;2;
76421;PMS5003;65254;52.354;13.614;2023-11-19T22:44:00;2;2;
76421;PMS5003;65254;52.354;13.614;2023-11-19T22:48:00;2;2;
76421;PMS5003;65254;52.354;13.614;2023-11-19T22:52:00;1;1;
76421;PMS5003;65254;52.354;13.614;2023-11-19T22:56:00;2;2;
76421;PMS5003;65254;52.354;13.614;2023-11-19T23:00:00;2;2;
76421;PMS5003;65254;52.354;13.614;2023-11-19T23:04:00;1;1;
76421;PMS5003;65254;52.354;13.614;2023-11-19T23:08:00;2;2;
76421;PMS5003;65254;52.354;13.614;2023-11-19T23:12:00;2;2;
76421;PMS5003;65254;52.354;13.614;2023-11-19T23:16:00;1;1;
76421;PMS5003;65254;52.354;13.614;2023-11-19T23:20:10;2;2;
76421;PMS5003;65254;52.354;13.614;2023-11-19T23:24:00;1;1;
76421;PMS5003;65254;52.354;13.614;2023-11-19T23:28:00;2;2;
76421;PMS5003;65254;52.354;13.614;2023-11-19T23:32:00;2;2;
76421;PMS5003;65254;52.354;13.614;2023-11-19T23:36:00;1;1;
76421;PMS5003;65254;52.354;13.614;2023-11-19T23:40:00;2;2;
76421;PMS5003;65254;52.354;13.614;2023-11-19T23:44:00;2;2;
76421;PMS5003;65254;52.354;13.614;2023-11-19T23:48:00;2;2;
76421;PMS5003;65254;52.354;13.614;2023-11-19T23:52:00;2;2;
76421;PMS5003;65254;52.354;13.614;2023-11-19T23:56:00;2;2;
